Time;durP1;ratioP1;P1;durP2;ratioP2;P2;SDS_P1;SDS_P2;PMS_P1;PMS_P2;Temp;Humidity;BMP_temperature;BMP_pressure;BME280_temperature;BME280_humidity;BME280_pressure;Samples;Min_cycle;Max_cycle;Signal;HPM_P1;HPM_P2
2022/03/14 00:00:19;;;;;;;25.07;11.43;;;9.50;36.10;;;;;;5087295;28;20459;-85
2022/03/14 00:02:46;;;;;;;21.83;11.90;;;9.30;36.00;;;;;;5087461;28;20871;-85
2022/03/14 00:05:17;;;;;;;19.67;10.37;;;9.10;36.20;;;;;;5087738;28;20439;-85
2022/03/14 00:07:45;;;;;;;14.17;9.13;;;9.20;36.40;;;;;;5086552;28;20549;-85
2022/03/14 00:10:15;;;;;;;21.10;12.63;;;9.20;35.40;;;;;;5078187;28;20455;-86
2022/03/14 00:12:43;;;;;;;23.40;11.47;;;9.10;35.90;;;;;;5086722;28;21064;-85
2022/03/14 00:15:11;;;;;;;17.13;11.07;;;8.80;35.60;;;;;;5088662;28;20538;-87
2022/03/14 00:17:40;;;;;;;20.90;10.40;;;9.00;36.20;;;;;;5072570;28;20467;-87
2022/03/14 00:20:11;;;;;;;17.13;10.27;;;9.10;36.60;;;;;;5097024;28;20914;-86
2022/03/14 00:22:40;;;;;;;22.13;10.77;;;9.20;36.20;;;;;;5088159;28;20583;-85
2022/03/14 00:25:09;;;;;;;12.90;9.80;;;9.30;36.20;;;;;;5071022;28;20447;-86
2022/03/14 00:27:36;;;;;;;20.80;10.50;;;9.30;36.60;;;;;;5068003;28;20451;-86
2022/03/14 00:30:04;;;;;;;15.80;9.70;;;9.40;36.70;;;;;;5104901;27;20458;-86
2022/03/14 00:32:35;;;;;;;20.40;10.83;;;9.40;36.80;;;;;;5088578;28;20447;-85
2022/03/14 00:35:02;;;;;;;19.93;10.63;;;9.40;36.70;;;;;;5088348;28;20538;-85
2022/03/14 00:37:30;;;;;;;14.97;10.63;;;9.40;36.70;;;;;;5096576;28;21007;-86
2022/03/14 00:39:58;;;;;;;18.63;10.50;;;9.30;36.70;;;;;;5086953;28;20447;-86
2022/03/14 00:42:25;;;;;;;18.87;9.93;;;9.10;36.60;;;;;;5070012;28;20476;-85
2022/03/14 00:44:53;;;;;;;18.93;10.13;;;9.10;37.20;;;;;;5087484;28;20616;-85
2022/03/14 00:47:22;;;;;;;18.97;10.43;;;9.20;37.10;;;;;;5093677;28;20455;-86
2022/03/14 00:49:49;;;;;;;20.17;11.50;;;9.10;36.20;;;;;;5073812;28;20471;-86
2022/03/14 00:52:17;;;;;;;20.63;11.07;;;9.00;36.10;;;;;;5097661;28;21009;-86
2022/03/14 00:54:44;;;;;;;22.90;12.23;;;9.00;37.10;;;;;;5089440;28;20462;-86
2022/03/14 00:57:14;;;;;;;18.20;11.70;;;9.10;37.60;;;;;;5087698;28;20468;-84
2022/03/14 00:59:41;;;;;;;23.90;11.90;;;9.10;37.40;;;;;;5096746;28;20443;-86
2022/03/14 01:02:09;;;;;;;19.30;11.97;;;9.20;37.30;;;;;;5070648;28;20474;-87
2022/03/14 01:04:36;;;;;;;24.07;12.30;;;9.10;37.50;;;;;;5087351;28;20467;-83
2022/03/14 01:07:04;;;;;;;24.43;12.13;;;8.80;39.00;;;;;;5069860;28;20798;-85
2022/03/14 01:09:31;;;;;;;20.27;12.33;;;8.90;39.30;;;;;;5088490;28;20458;-86
2022/03/14 01:11:58;;;;;;;20.07;11.90;;;9.00;39.10;;;;;;5093668;28;20472;-86
2022/03/14 01:14:26;;;;;;;20.77;12.70;;;9.10;39.10;;;;;;5077821;28;20450;-86
2022/03/14 01:16:53;;;;;;;19.97;12.73;;;9.20;39.10;;;;;;5095632;28;20478;-86
2022/03/14 01:19:21;;;;;;;14.47;10.83;;;9.20;39.10;;;;;;5068473;28;20436;-86
2022/03/14 01:21:49;;;;;;;19.10;10.43;;;9.10;39.10;;;;;;5068232;28;20461;-85
2022/03/14 01:24:17;;;;;;;19.77;12.33;;;9.10;39.10;;;;;;5076058;28;21020;-86
2022/03/14 01:26:45;;;;;;;22.30;11.30;;;9.10;38.90;;;;;;5095726;28;20463;-86
2022/03/14 01:29:12;;;;;;;24.67;11.60;;;8.90;39.90;;;;;;5070341;28;20432;-86
2022/03/14 01:31:40;;;;;;;21.63;12.37;;;8.80;40.80;;;;;;5096185;28;20475;-86
2022/03/14 01:34:08;;;;;;;20.27;11.67;;;8.80;41.40;;;;;;5078704;28;20462;-86
2022/03/14 01:36:35;;;;;;;22.87;12.33;;;8.80;41.00;;;;;;5090666;28;20490;-86
2022/03/14 01:39:03;;;;;;;22.20;11.97;;;8.90;41.20;;;;;;5086933;28;20450;-85
2022/03/14 01:41:30;;;;;;;20.77;11.27;;;8.90;40.70;;;;;;5087441;28;20439;-86
2022/03/14 01:43:59;;;;;;;23.40;10.73;;;8.80;40.30;;;;;;5086839;28;20463;-85
2022/03/14 01:46:26;;;;;;;26.27;13.17;;;8.80;38.90;;;;;;5087650;28;20504;-84
2022/03/14 01:48:55;;;;;;;25.30;13.07;;;8.80;38.30;;;;;;5088494;28;20444;-85
2022/03/14 01:51:26;;;;;;;24.77;11.87;;;8.80;38.30;;;;;;5075074;28;20459;-86
2022/03/14 01:53:54;;;;;;;22.70;11.70;;;8.80;38.60;;;;;;5091317;28;20861;-85
2022/03/14 01:56:21;;;;;;;23.03;12.20;;;8.90;38.90;;;;;;5093272;28;20451;-85
2022/03/14 01:58:48;;;;;;;23.93;12.07;;;8.90;39.00;;;;;;5092009;28;20478;-86
2022/03/14 02:01:15;;;;;;;22.80;10.70;;;8.90;39.10;;;;;;5090688;28;20480;-86
2022/03/14 02:03:42;;;;;;;24.90;11.37;;;8.90;39.20;;;;;;5089875;28;21102;-86
2022/03/14 02:06:11;;;;;;;25.60;11.47;;;8.90;39.20;;;;;;5074427;28;20459;-85
2022/03/14 02:08:38;;;;;;;23.07;12.60;;;8.90;39.00;;;;;;5106960;27;20460;-85
2022/03/14 02:11:06;;;;;;;18.10;10.37;;;8.90;39.00;;;;;;5091310;28;20543;-86
2022/03/14 02:13:32;;;;;;;26.90;12.13;;;8.90;39.00;;;;;;5075290;28;20471;-86
2022/03/14 02:16:00;;;;;;;19.63;11.40;;;8.90;39.00;;;;;;5064418;28;20971;-86
2022/03/14 02:18:27;;;;;;;22.50;11.87;;;8.90;39.20;;;;;;5092913;28;20468;-86
2022/03/14 02:20:56;;;;;;;18.77;11.17;;;8.90;39.20;;;;;;5088676;28;21095;-86
2022/03/14 02:23:23;;;;;;;17.77;10.17;;;8.80;39.30;;;;;;5093755;28;20467;-86
2022/03/14 02:25:51;;;;;;;20.77;11.47;;;8.80;38.90;;;;;;5088182;28;20443;-84
2022/03/14 02:28:22;;;;;;;27.50;10.60;;;8.60;39.10;;;;;;5075317;28;20448;-85
2022/03/14 02:30:49;;;;;;;22.30;11.37;;;8.50;39.00;;;;;;5089787;28;20466;-83
2022/03/14 02:33:16;;;;;;;20.20;11.00;;;8.50;39.70;;;;;;5091883;28;21170;-86
2022/03/14 02:35:44;;;;;;;21.30;12.10;;;8.60;40.00;;;;;;5089821;28;20446;-85
2022/03/14 02:38:14;;;;;;;19.10;11.20;;;8.60;40.20;;;;;;5075324;28;20870;-85
2022/03/14 02:40:43;;;;;;;21.40;10.10;;;8.60;40.20;;;;;;5089775;28;20835;-86
2022/03/14 02:43:10;;;;;;;22.20;11.13;;;8.50;39.40;;;;;;5089996;28;21044;-86
2022/03/14 02:45:38;;;;;;;16.80;10.00;;;8.50;40.00;;;;;;5088200;28;20518;-87
2022/03/14 02:48:06;;;;;;;19.37;11.53;;;8.50;39.80;;;;;;5087694;27;20451;-86
2022/03/14 02:50:33;;;;;;;24.23;12.87;;;8.60;40.00;;;;;;5073330;28;20540;-85
2022/03/14 02:53:00;;;;;;;19.57;10.77;;;8.60;40.00;;;;;;5075490;28;20986;-87
2022/03/14 02:55:28;;;;;;;21.90;11.80;;;8.60;40.30;;;;;;5088691;28;20456;-87
2022/03/14 02:57:58;;;;;;;16.53;11.23;;;8.50;40.70;;;;;;5090669;28;20470;-86
2022/03/14 03:00:25;;;;;;;21.83;10.60;;;8.30;41.10;;;;;;5088686;28;20565;-85
2022/03/14 03:02:52;;;;;;;16.33;9.90;;;8.30;40.70;;;;;;5093329;28;20488;-85
2022/03/14 03:05:19;;;;;;;19.07;9.70;;;8.20;40.30;;;;;;5090224;28;22104;-86
2022/03/14 03:07:48;;;;;;;18.30;10.67;;;7.80;39.20;;;;;;5091671;28;20448;-85
2022/03/14 03:10:16;;;;;;;16.00;8.70;;;7.60;40.70;;;;;;5088791;28;20450;-86
2022/03/14 03:12:45;;;;;;;16.90;9.10;;;7.40;39.80;;;;;;5089269;28;20567;-85
2022/03/14 03:15:15;;;;;;;18.10;10.10;;;7.30;41.00;;;;;;5074242;28;20427;-86
2022/03/14 03:17:42;;;;;;;21.23;9.90;;;7.20;40.30;;;;;;5089549;28;20559;-86
2022/03/14 03:20:10;;;;;;;16.80;9.03;;;7.40;40.70;;;;;;5091620;28;20508;-85
2022/03/14 03:22:38;;;;;;;18.17;9.77;;;7.60;40.50;;;;;;5090684;28;20470;-86
2022/03/14 03:25:06;;;;;;;14.03;9.70;;;7.70;40.90;;;;;;5091244;28;20459;-84
2022/03/14 03:27:33;;;;;;;13.73;9.30;;;7.90;40.60;;;;;;5089730;28;20462;-86
2022/03/14 03:30:01;;;;;;;16.60;9.50;;;7.40;40.30;;;;;;5091256;28;20459;-87
2022/03/14 03:32:28;;;;;;;18.27;9.77;;;7.50;40.80;;;;;;5090069;28;20486;-85
2022/03/14 03:34:55;;;;;;;14.03;8.67;;;7.80;39.90;;;;;;5086198;28;20444;-86
2022/03/14 03:37:22;;;;;;;16.90;9.50;;;8.00;39.90;;;;;;5090617;28;20620;-87
2022/03/14 03:39:49;;;;;;;15.87;8.73;;;8.10;40.20;;;;;;5087714;28;20979;-86
2022/03/14 03:42:16;;;;;;;18.30;11.03;;;8.20;40.90;;;;;;5074652;28;20467;-86
2022/03/14 03:44:43;;;;;;;15.20;8.87;;;8.30;40.40;;;;;;5079129;28;20450;-85
2022/03/14 03:47:11;;;;;;;15.90;10.13;;;8.30;40.30;;;;;;5086666;28;20463;-85
2022/03/14 03:49:38;;;;;;;19.57;11.77;;;8.30;40.70;;;;;;5088596;28;21185;-87
2022/03/14 03:52:07;;;;;;;20.10;10.90;;;8.10;42.10;;;;;;5088204;28;20478;-86
2022/03/14 03:54:34;;;;;;;16.47;10.30;;;8.20;42.60;;;;;;5103651;27;20555;-86
2022/03/14 03:57:00;;;;;;;19.30;11.20;;;8.30;42.90;;;;;;5097121;28;20505;-86
2022/03/14 03:59:27;;;;;;;20.63;12.00;;;8.00;43.60;;;;;;5073393;28;20467;-86
2022/03/14 04:01:55;;;;;;;23.20;12.37;;;7.90;44.70;;;;;;5070782;28;20469;-86
2022/03/14 04:04:25;;;;;;;19.87;11.20;;;8.00;44.60;;;;;;5079763;28;20455;-86
2022/03/14 04:06:54;;;;;;;18.33;11.43;;;8.20;44.50;;;;;;5090548;28;20452;-86
2022/03/14 04:09:21;;;;;;;18.00;10.63;;;8.00;45.10;;;;;;5088626;28;20435;-84
2022/03/14 04:11:49;;;;;;;22.80;11.73;;;8.10;45.40;;;;;;5089209;28;20471;-86
2022/03/14 04:14:16;;;;;;;19.53;10.50;;;8.30;44.90;;;;;;5088730;28;20571;-87
2022/03/14 04:16:43;;;;;;;22.60;13.60;;;8.10;44.70;;;;;;5089064;28;20563;-87
2022/03/14 04:19:10;;;;;;;19.10;11.30;;;8.00;43.90;;;;;;5086773;28;20567;-87
2022/03/14 04:21:39;;;;;;;24.13;11.43;;;7.90;43.90;;;;;;5095988;28;20516;-86
2022/03/14 04:24:07;;;;;;;25.50;12.33;;;7.80;43.90;;;;;;5087751;28;20450;-86
2022/03/14 04:26:34;;;;;;;31.10;15.87;;;8.00;43.60;;;;;;5072055;28;20446;-85
2022/03/14 04:29:01;;;;;;;98.33;23.17;;;8.10;43.30;;;;;;5085125;28;20436;-86
2022/03/14 04:31:28;;;;;;;47.00;20.27;;;8.30;42.70;;;;;;5086438;28;21288;-86
2022/03/14 04:33:57;;;;;;;22.60;12.47;;;8.40;43.40;;;;;;5079489;28;20793;-85
2022/03/14 04:36:24;;;;;;;20.40;11.77;;;8.10;44.90;;;;;;5096668;28;20941;-84
2022/03/14 04:38:52;;;;;;;21.90;13.10;;;7.90;46.20;;;;;;5085934;28;21274;-87
2022/03/14 04:41:19;;;;;;;22.00;12.33;;;8.10;46.40;;;;;;5081853;28;20464;-85
2022/03/14 04:43:46;;;;;;;23.07;11.97;;;8.30;46.40;;;;;;5095444;28;20460;-86
2022/03/14 04:46:14;;;;;;;23.50;12.77;;;8.50;46.10;;;;;;5073893;28;20447;-86
2022/03/14 04:48:40;;;;;;;18.60;11.23;;;8.50;46.50;;;;;;5069980;28;20440;-85
2022/03/14 04:51:08;;;;;;;14.97;12.17;;;8.30;46.70;;;;;;5086783;28;20448;-86
2022/03/14 04:53:36;;;;;;;17.10;10.87;;;8.40;47.30;;;;;;5104982;28;20536;-85
2022/03/14 04:56:04;;;;;;;25.23;17.83;;;8.30;47.40;;;;;;5058625;28;20505;-86
2022/03/14 04:58:33;;;;;;;19.80;12.43;;;8.30;47.40;;;;;;5086138;28;20520;-86
2022/03/14 05:01:00;;;;;;;15.47;10.27;;;8.30;47.70;;;;;;5080046;28;20456;-84
2022/03/14 05:03:28;;;;;;;19.60;11.87;;;8.20;48.40;;;;;;5084719;28;21017;-85
2022/03/14 05:05:55;;;;;;;22.40;12.83;;;8.30;48.60;;;;;;5088444;28;20454;-87
2022/03/14 05:08:21;;;;;;;26.07;14.10;;;8.40;48.40;;;;;;5090186;28;20457;-86
2022/03/14 05:10:50;;;;;;;17.40;10.70;;;8.40;48.30;;;;;;5056164;28;20454;-84
2022/03/14 05:13:18;;;;;;;24.60;13.40;;;8.40;48.90;;;;;;5088897;28;20476;-85
2022/03/14 05:15:45;;;;;;;21.83;12.93;;;8.40;48.30;;;;;;5077580;28;20460;-85
2022/03/14 05:18:12;;;;;;;14.53;10.97;;;8.50;48.30;;;;;;5093077;28;20497;-86
2022/03/14 05:20:40;;;;;;;21.43;13.17;;;8.60;47.80;;;;;;5070794;28;21017;-87
2022/03/14 05:23:07;;;;;;;21.47;12.70;;;8.50;48.90;;;;;;5070783;28;23354;-85
2022/03/14 05:25:34;;;;;;;20.60;12.50;;;8.50;48.60;;;;;;5074979;28;20447;-87
2022/03/14 05:28:01;;;;;;;24.03;13.60;;;8.50;48.70;;;;;;5074030;28;20952;-85
2022/03/14 05:30:29;;;;;;;17.80;12.20;;;8.50;49.40;;;;;;5092691;28;20450;-86
2022/03/14 05:32:56;;;;;;;22.73;13.00;;;8.60;49.80;;;;;;5067992;28;20494;-86
2022/03/14 05:35:23;;;;;;;31.17;15.30;;;8.70;50.10;;;;;;5092180;28;20938;-86
2022/03/14 05:37:50;;;;;;;21.97;12.93;;;8.70;50.30;;;;;;5089829;28;20449;-86
2022/03/14 05:40:20;;;;;;;20.03;12.40;;;8.70;50.20;;;;;;5099738;28;20961;-86
2022/03/14 05:42:48;;;;;;;20.27;13.50;;;8.60;48.20;;;;;;5097970;28;20934;-85
2022/03/14 05:45:16;;;;;;;25.60;15.23;;;8.50;48.30;;;;;;5093155;28;20440;-85
2022/03/14 05:47:46;;;;;;;22.47;12.77;;;8.10;49.30;;;;;;5093419;28;20458;-85
2022/03/14 05:50:13;;;;;;;19.80;11.97;;;7.80;50.40;;;;;;5074561;28;20450;-85
2022/03/14 05:52:40;;;;;;;21.50;13.23;;;8.00;50.80;;;;;;5078219;28;20482;-86
2022/03/14 05:55:08;;;;;;;20.77;14.33;;;8.20;52.30;;;;;;5090671;28;20454;-86
2022/03/14 05:57:35;;;;;;;21.33;13.90;;;8.30;52.00;;;;;;5077133;28;20594;-84
2022/03/14 06:00:03;;;;;;;27.80;15.53;;;8.20;52.70;;;;;;5064731;28;20518;-86
2022/03/14 06:02:29;;;;;;;22.13;14.53;;;8.20;53.30;;;;;;5092153;28;20485;-86
2022/03/14 06:04:58;;;;;;;30.13;14.67;;;8.20;53.50;;;;;;5081705;28;20455;-86
2022/03/14 06:07:25;;;;;;;22.90;12.73;;;8.40;53.00;;;;;;5094220;28;20448;-86
2022/03/14 06:09:52;;;;;;;28.10;14.37;;;8.50;52.40;;;;;;5091051;28;20797;-86
2022/03/14 06:12:26;;;;;;;27.20;16.73;;;8.40;51.80;;;;;;5101204;27;20463;-86
2022/03/14 06:14:54;;;;;;;22.20;14.33;;;8.50;52.30;;;;;;5089782;28;20463;-86
2022/03/14 06:17:21;;;;;;;25.57;15.70;;;8.40;53.90;;;;;;5090484;28;20567;-87
2022/03/14 06:19:48;;;;;;;29.47;15.83;;;8.40;54.20;;;;;;5092166;27;20478;-86
2022/03/14 06:22:18;;;;;;;27.20;14.77;;;8.40;54.60;;;;;;5093403;28;20475;-86
2022/03/14 06:24:47;;;;;;;25.83;16.00;;;8.60;54.30;;;;;;5054555;28;20539;-85
2022/03/14 06:27:15;;;;;;;26.47;15.63;;;8.60;54.50;;;;;;5076448;28;20819;-87
2022/03/14 06:29:42;;;;;;;26.60;14.47;;;8.60;54.30;;;;;;5091331;28;20957;-86
2022/03/14 06:32:09;;;;;;;21.80;12.77;;;8.50;54.20;;;;;;5088604;28;20463;-87
2022/03/14 06:34:37;;;;;;;24.80;14.67;;;8.40;54.60;;;;;;5091247;28;20473;-86
2022/03/14 06:37:06;;;;;;;27.23;15.30;;;8.50;54.40;;;;;;5089534;28;20462;-87
2022/03/14 06:39:36;;;;;;;24.60;13.83;;;8.60;53.90;;;;;;5090732;28;20555;-87
2022/03/14 06:42:04;;;;;;;27.80;16.20;;;8.80;53.50;;;;;;5077065;28;21069;-87
2022/03/14 06:44:31;;;;;;;26.10;15.00;;;8.70;53.80;;;;;;5065663;28;21093;-86
2022/03/14 06:46:58;;;;;;;32.17;17.13;;;8.60;54.60;;;;;;5072064;28;20443;-86
2022/03/14 06:49:25;;;;;;;30.80;17.73;;;8.40;55.00;;;;;;5092596;28;20890;-88
2022/03/14 06:51:52;;;;;;;34.40;20.00;;;8.40;55.90;;;;;;5072634;28;20878;-87
2022/03/14 06:54:19;;;;;;;34.23;18.23;;;8.60;55.30;;;;;;5073339;28;20943;-88
2022/03/14 06:56:47;;;;;;;38.97;20.93;;;8.60;55.10;;;;;;5075242;28;20443;-85
2022/03/14 06:59:14;;;;;;;34.80;19.93;;;8.60;55.30;;;;;;5088177;28;20850;-88
2022/03/14 07:01:41;;;;;;;28.77;17.63;;;8.60;55.10;;;;;;5091908;28;20938;-89
2022/03/14 07:04:08;;;;;;;34.53;18.63;;;8.50;55.80;;;;;;5087461;28;20455;-88
2022/03/14 07:06:35;;;;;;;28.07;16.80;;;8.40;56.20;;;;;;5089274;28;20444;-88
2022/03/14 07:09:04;;;;;;;30.37;16.37;;;8.60;55.90;;;;;;5082535;28;20446;-87
2022/03/14 07:11:31;;;;;;;36.03;15.67;;;8.50;55.10;;;;;;5092813;28;20496;-87
2022/03/14 07:14:01;;;;;;;27.27;15.50;;;8.40;55.80;;;;;;5071732;28;20575;-86
2022/03/14 07:16:28;;;;;;;26.73;14.13;;;8.50;56.10;;;;;;5089075;28;20444;-88
2022/03/14 07:18:54;;;;;;;27.83;15.00;;;8.60;55.90;;;;;;5100039;28;20485;-88
2022/03/14 07:21:28;;;;;;;21.83;13.53;;;8.50;55.80;;;;;;5091343;28;21158;-88
2022/03/14 07:23:55;;;;;;;25.10;15.23;;;8.50;56.10;;;;;;5093549;28;20795;-87
2022/03/14 07:26:22;;;;;;;22.87;14.40;;;8.50;56.20;;;;;;5095528;28;20535;-88
2022/03/14 07:28:49;;;;;;;27.27;16.03;;;8.60;56.40;;;;;;5058869;28;20972;-88
2022/03/14 07:31:19;;;;;;;39.97;18.23;;;8.70;56.40;;;;;;5094821;28;21012;-88
2022/03/14 07:33:46;;;;;;;25.67;15.40;;;8.50;56.10;;;;;;5074362;28;20465;-89
2022/03/14 07:36:13;;;;;;;30.20;16.23;;;8.40;56.50;;;;;;5075239;28;20462;-88
2022/03/14 07:38:40;;;;;;;25.67;15.70;;;8.40;57.10;;;;;;5072277;28;20474;-88
2022/03/14 07:41:08;;;;;;;22.83;14.30;;;8.30;57.00;;;;;;5086961;28;20530;-89
2022/03/14 07:43:35;;;;;;;22.67;13.50;;;8.30;57.90;;;;;;5096386;28;21197;-89
2022/03/14 07:46:02;;;;;;;28.67;15.00;;;8.60;57.30;;;;;;5090582;28;20452;-88
2022/03/14 07:48:31;;;;;;;37.77;23.30;;;8.70;56.60;;;;;;5076361;28;20492;-88
2022/03/14 07:50:58;;;;;;;41.20;21.40;;;8.70;56.10;;;;;;5089923;28;20477;-88
2022/03/14 07:53:26;;;;;;;39.23;22.00;;;8.40;57.90;;;;;;5091474;28;20469;-90
2022/03/14 07:55:53;;;;;;;38.27;21.57;;;8.40;58.20;;;;;;5092278;28;20494;-89
2022/03/14 07:58:20;;;;;;;43.20;25.33;;;8.20;59.50;;;;;;5058571;28;20463;-88
2022/03/14 08:00:47;;;;;;;36.47;20.30;;;8.50;59.60;;;;;;5074144;28;20484;-88
2022/03/14 08:03:18;;;;;;;31.00;22.00;;;8.70;59.80;;;;;;5093409;28;20489;-88
2022/03/14 08:05:48;;;;;;;35.00;21.40;;;8.90;59.40;;;;;;5090388;28;20543;-86
2022/03/14 08:08:17;;;;;;;37.47;24.97;;;8.90;60.60;;;;;;5082078;28;20531;-88
2022/03/14 08:10:46;;;;;;;36.00;20.20;;;9.00;60.30;;;;;;5077404;28;20453;-88
2022/03/14 08:13:13;;;;;;;28.27;17.30;;;9.30;60.00;;;;;;5083615;28;20998;-88
2022/03/14 08:15:40;;;;;;;34.20;18.13;;;9.30;60.40;;;;;;5093154;27;20470;-89
2022/03/14 08:18:09;;;;;;;24.30;16.30;;;9.60;60.10;;;;;;5059567;28;20450;-88
2022/03/14 08:20:37;;;;;;;26.73;16.80;;;9.70;60.30;;;;;;5091863;28;20494;-89
2022/03/14 08:23:06;;;;;;;61.63;22.03;;;9.90;59.30;;;;;;5078031;28;20559;-87
2022/03/14 08:25:35;;;;;;;30.67;15.73;;;10.00;58.40;;;;;;5092526;28;20454;-89
2022/03/14 08:28:02;;;;;;;33.60;22.00;;;9.90;60.10;;;;;;5073057;28;20848;-87
2022/03/14 08:30:29;;;;;;;31.73;22.17;;;9.90;61.30;;;;;;5093237;28;20451;-88
2022/03/14 08:32:58;;;;;;;17.13;10.00;;;9.90;62.90;;;;;;5091808;28;20479;-88
2022/03/14 08:35:26;;;;;;;30.87;16.83;;;10.00;61.10;;;;;;5066378;28;20458;-88
2022/03/14 08:37:54;;;;;;;14.07;8.50;;;10.10;61.60;;;;;;5073823;28;20444;-89
2022/03/14 08:40:24;;;;;;;14.93;6.20;;;10.20;61.00;;;;;;5092444;27;20471;-89
2022/03/14 08:42:52;;;;;;;12.00;7.43;;;10.40;61.10;;;;;;5076964;28;20474;-88
2022/03/14 08:45:19;;;;;;;11.77;6.43;;;10.40;61.50;;;;;;5093228;28;20455;-88
2022/03/14 08:47:47;;;;;;;11.90;8.00;;;10.40;62.80;;;;;;5092791;28;20470;-89
2022/03/14 08:50:14;;;;;;;13.50;7.10;;;10.60;62.50;;;;;;5089163;28;20439;-88
2022/03/14 08:52:42;;;;;;;13.60;7.60;;;10.60;61.80;;;;;;5093011;28;20468;-88
2022/03/14 08:55:10;;;;;;;20.00;13.40;;;10.80;61.60;;;;;;5089021;28;20442;-89
2022/03/14 08:57:38;;;;;;;16.97;8.53;;;10.90;62.00;;;;;;5080058;28;20481;-90
2022/03/14 09:00:07;;;;;;;14.13;7.20;;;10.90;62.30;;;;;;5077558;28;20469;-89
2022/03/14 09:02:36;;;;;;;16.20;6.47;;;11.00;63.00;;;;;;5096715;28;20518;-89
2022/03/14 09:05:03;;;;;;;23.67;15.13;;;11.10;62.90;;;;;;5094604;28;20448;-89
2022/03/14 09:07:32;;;;;;;21.77;14.37;;;11.20;62.10;;;;;;5084136;28;20438;-88
2022/03/14 09:10:03;;;;;;;29.40;17.03;;;11.20;61.60;;;;;;5077012;28;20456;-88
2022/03/14 09:12:33;;;;;;;21.10;12.27;;;11.30;61.40;;;;;;5096734;28;20462;-88
2022/03/14 09:15:01;;;;;;;14.50;7.90;;;11.40;61.10;;;;;;5095417;28;20469;-88
2022/03/14 09:17:32;;;;;;;16.73;9.33;;;11.20;62.20;;;;;;5084951;28;21233;-88
2022/03/14 09:20:00;;;;;;;13.97;9.50;;;11.30;63.10;;;;;;5086957;28;20463;-89
2022/03/14 09:22:27;;;;;;;14.83;9.07;;;11.40;62.60;;;;;;5079479;28;20528;-89
2022/03/14 09:24:55;;;;;;;18.30;9.93;;;11.60;61.90;;;;;;5093725;28;20455;-89
2022/03/14 09:27:23;;;;;;;17.57;9.00;;;11.60;61.80;;;;;;5095947;28;20493;-88
2022/03/14 09:29:51;;;;;;;12.60;7.13;;;11.70;61.60;;;;;;5101911;28;21020;-90
2022/03/14 09:32:20;;;;;;;11.83;6.43;;;11.70;61.20;;;;;;5096114;28;20471;-89
2022/03/14 09:34:46;;;;;;;14.60;6.50;;;11.40;62.60;;;;;;5065986;28;20469;-90
2022/03/14 09:37:14;;;;;;;7.70;5.80;;;11.50;62.20;;;;;;5082903;28;20449;-89
2022/03/14 09:39:42;;;;;;;11.83;6.10;;;11.50;63.00;;;;;;5086791;28;20542;-89
2022/03/14 09:42:12;;;;;;;12.33;5.47;;;11.80;62.60;;;;;;5094832;28;20468;-91
2022/03/14 09:44:42;;;;;;;9.50;6.03;;;11.80;62.20;;;;;;5095337;28;20451;-89
2022/03/14 09:47:11;;;;;;;8.40;5.87;;;11.80;62.10;;;;;;5103528;28;20475;-89
2022/03/14 09:49:43;;;;;;;7.27;5.30;;;11.70;62.40;;;;;;5099384;28;20960;-90
2022/03/14 09:52:12;;;;;;;10.87;6.47;;;11.70;62.10;;;;;;5064531;28;20466;-88
2022/03/14 09:54:39;;;;;;;6.47;5.13;;;11.80;62.20;;;;;;5094908;28;20431;-88
2022/03/14 09:57:06;;;;;;;12.17;5.60;;;11.80;61.80;;;;;;5094706;28;21001;-88
2022/03/14 09:59:35;;;;;;;13.50;5.90;;;11.70;62.50;;;;;;5094942;28;21021;-88
2022/03/14 10:02:02;;;;;;;8.33;5.03;;;11.80;62.40;;;;;;5095160;28;20476;-89
2022/03/14 10:04:29;;;;;;;9.60;5.77;;;11.90;61.70;;;;;;5094016;28;20468;-88
2022/03/14 10:06:57;;;;;;;11.63;5.77;;;12.10;61.00;;;;;;5092806;28;20448;-90
2022/03/14 10:09:24;;;;;;;7.63;4.80;;;12.20;60.70;;;;;;5088959;28;20447;-89
2022/03/14 10:11:52;;;;;;;11.73;6.37;;;12.20;60.70;;;;;;5091347;28;20467;-88
2022/03/14 10:14:21;;;;;;;19.77;10.40;;;12.30;60.70;;;;;;5077181;28;20832;-90
2022/03/14 10:16:48;;;;;;;13.63;6.93;;;12.30;60.60;;;;;;5092704;28;20463;-88
2022/03/14 10:19:20;;;;;;;8.47;4.30;;;12.60;60.00;;;;;;5083578;28;20448;-89
2022/03/14 10:21:50;;;;;;;11.60;4.77;;;12.50;60.60;;;;;;5085751;28;20454;-90
2022/03/14 10:24:22;;;;;;;8.13;5.20;;;12.80;60.50;;;;;;5095097;28;20440;-89
2022/03/14 10:26:51;;;;;;;12.13;4.57;;;13.00;60.00;;;;;;5063779;28;20430;-90
2022/03/14 10:29:22;;;;;;;17.37;4.37;;;13.30;59.70;;;;;;5090695;28;20432;-90
2022/03/14 10:31:54;;;;;;;6.40;4.83;;;13.30;58.40;;;;;;5079519;28;20488;-89
2022/03/14 10:34:21;;;;;;;5.40;4.00;;;13.30;58.70;;;;;;5079859;28;20970;-89
2022/03/14 10:36:51;;;;;;;12.30;5.53;;;13.40;58.90;;;;;;5063392;28;20446;-89
2022/03/14 10:39:25;;;;;;;7.93;5.17;;;13.50;58.70;;;;;;5084421;28;20532;-90
2022/03/14 10:42:04;;;;;;;10.70;5.17;;;13.60;58.20;;;;;;5091878;28;20828;-89
2022/03/14 10:44:32;;;;;;;7.50;5.40;;;13.60;57.10;;;;;;5081478;28;20982;-89
2022/03/14 10:47:00;;;;;;;6.83;5.50;;;13.60;57.30;;;;;;5074588;28;20447;-89
2022/03/14 10:49:28;;;;;;;7.17;5.30;;;13.60;58.10;;;;;;5092023;28;20443;-91
2022/03/14 10:51:57;;;;;;;13.03;7.00;;;13.30;57.40;;;;;;5079362;28;20501;-89
2022/03/14 10:54:26;;;;;;;8.23;4.70;;;13.40;57.60;;;;;;5071646;28;20462;-89
2022/03/14 10:57:08;;;;;;;8.73;5.40;;;13.40;57.50;;;;;;5089301;27;20450;-90
2022/03/14 10:59:40;;;;;;;10.57;4.63;;;13.20;58.00;;;;;;5071552;28;20992;-90
2022/03/14 11:02:09;;;;;;;14.07;5.43;;;13.30;57.70;;;;;;5075491;28;20483;-89
2022/03/14 11:04:44;;;;;;;5.63;3.90;;;13.40;58.30;;;;;;5062355;28;20778;-89
2022/03/14 11:07:12;;;;;;;8.03;4.97;;;13.50;58.00;;;;;;5096861;28;21023;-90
2022/03/14 11:09:45;;;;;;;9.47;5.60;;;13.40;57.30;;;;;;5089434;28;20464;-89
2022/03/14 11:12:15;;;;;;;12.60;6.27;;;13.40;57.50;;;;;;5078160;28;21483;-89
2022/03/14 11:14:43;;;;;;;11.60;4.70;;;13.30;56.40;;;;;;5065481;28;20455;-89
2022/03/14 11:17:21;;;;;;;8.40;4.73;;;13.30;55.70;;;;;;5094607;28;21306;-90
2022/03/14 11:19:48;;;;;;;8.73;4.43;;;13.40;55.50;;;;;;5092304;28;20832;-89
2022/03/14 11:22:16;;;;;;;6.73;4.10;;;13.40;55.70;;;;;;5073578;28;20471;-89
2022/03/14 11:24:47;;;;;;;5.83;4.00;;;13.30;56.10;;;;;;5056466;28;20450;-90
2022/03/14 11:27:23;;;;;;;7.87;4.00;;;13.30;55.00;;;;;;5091882;28;20508;-88
2022/03/14 11:29:52;;;;;;;6.73;4.10;;;13.30;55.20;;;;;;5073107;28;20448;-89
2022/03/14 11:32:20;;;;;;;6.73;3.50;;;13.20;55.00;;;;;;5092223;28;20471;-90
2022/03/14 11:34:48;;;;;;;5.57;3.33;;;13.40;54.90;;;;;;5082955;28;20459;-90
2022/03/14 11:37:17;;;;;;;3.90;2.57;;;13.50;53.80;;;;;;5090814;28;20470;-89
2022/03/14 11:39:45;;;;;;;6.60;3.50;;;13.40;53.40;;;;;;5057496;28;20463;-89
2022/03/14 11:42:15;;;;;;;4.80;3.50;;;13.50;53.50;;;;;;5094783;27;20475;-88
2022/03/14 11:44:44;;;;;;;6.90;3.27;;;13.70;53.00;;;;;;5079755;27;20443;-89
2022/03/14 11:47:13;;;;;;;3.57;2.53;;;14.00;52.30;;;;;;5080362;28;20451;-90
2022/03/14 11:49:40;;;;;;;5.33;3.23;;;14.20;53.30;;;;;;5063517;27;20450;-86
2022/03/14 11:52:13;;;;;;;3.33;2.90;;;14.00;51.90;;;;;;5077470;27;20464;-89
2022/03/14 11:54:48;;;;;;;2.50;2.27;;;13.80;51.80;;;;;;5075558;28;20684;-86
2022/03/14 11:57:33;;;;;;;5.67;3.50;;;13.70;52.10;;;;;;5092560;27;20458;-88
2022/03/14 12:00:38;;;;;;;3.87;3.57;;;13.60;51.60;;;;;;5122278;27;20441;-90
2022/03/14 12:03:07;;;;;;;4.13;3.00;;;13.40;52.20;;;;;;5105452;27;20483;-89
2022/03/14 12:05:47;;;;;;;1.93;1.67;;;13.50;52.20;;;;;;5133225;27;20561;-90
2022/03/14 12:09:01;;;;;;;2.23;2.03;;;13.50;52.70;;;;;;5106153;27;20445;-90
2022/03/14 12:11:48;;;;;;;3.77;2.63;;;13.70;51.20;;;;;;5099033;27;20434;-88
2022/03/14 12:14:44;;;;;;;3.10;2.10;;;13.50;50.60;;;;;;5084398;27;20438;-89
2022/03/14 12:17:25;;;;;;;4.30;2.70;;;13.70;50.40;;;;;;5101793;27;20438;-89
2022/03/14 12:19:53;;;;;;;4.17;2.30;;;13.80;50.20;;;;;;5104289;27;20445;-88
2022/03/14 12:22:39;;;;;;;2.67;2.30;;;14.00;50.90;;;;;;5113811;27;20479;-88
2022/03/14 12:25:08;;;;;;;3.20;2.43;;;13.90;50.20;;;;;;5096691;27;20444;-88
2022/03/14 12:27:36;;;;;;;6.97;2.70;;;13.90;49.80;;;;;;5115303;27;20524;-88
2022/03/14 12:30:08;;;;;;;4.27;2.20;;;14.20;50.00;;;;;;5104439;27;20876;-89
2022/03/14 12:32:38;;;;;;;5.43;3.00;;;14.10;48.70;;;;;;5114495;27;20981;-88
2022/03/14 12:35:08;;;;;;;4.27;2.50;;;14.00;48.60;;;;;;5105515;27;21033;-88
2022/03/14 12:37:49;;;;;;;2.80;2.20;;;14.20;48.90;;;;;;5123455;27;20515;-88
2022/03/14 12:40:41;;;;;;;2.63;2.20;;;14.30;48.30;;;;;;5111893;27;20460;-89
2022/03/14 12:43:32;;;;;;;2.50;2.20;;;14.40;48.40;;;;;;5095619;27;20480;-89
2022/03/14 12:46:02;;;;;;;6.27;4.17;;;14.70;48.30;;;;;;5095713;27;20816;-88